createdAt,value
2023-04-15T00:01:21.617Z,4.90
2023-04-15T00:03:52.738Z,5.10
2023-04-15T00:06:21.870Z,6.60
2023-04-15T00:08:50.876Z,5.90
2023-04-15T00:11:20.271Z,6.20
2023-04-15T00:13:51.622Z,4.30
2023-04-15T00:16:19.699Z,7.30
2023-04-15T00:18:48.092Z,9.80
2023-04-15T00:21:21.202Z,10.50
2023-04-15T00:23:52.941Z,6.00
2023-04-15T00:26:21.146Z,6.70
2023-04-15T00:28:54.254Z,5.60
2023-04-15T00:31:23.570Z,7.10
2023-04-15T00:33:52.531Z,8.70
2023-04-15T00:36:24.761Z,6.90
2023-04-15T00:38:54.211Z,5.10
2023-04-15T00:41:23.231Z,11.40
2023-04-15T00:43:52.908Z,5.30
2023-04-15T00:46:21.779Z,5.60
2023-04-15T00:48:52.541Z,3.90
2023-04-15T00:51:20.988Z,4.90
2023-04-15T00:53:49.076Z,7.20
2023-04-15T00:56:17.341Z,5.30
2023-04-15T00:58:45.659Z,4.40
2023-04-15T01:01:14.126Z,6.80
2023-04-15T01:03:45.283Z,5.30
2023-04-15T01:06:14.213Z,6.80
2023-04-15T01:08:42.389Z,6.30
2023-04-15T01:11:12.591Z,7.70
2023-04-15T01:13:42.826Z,6.20
2023-04-15T01:16:11.020Z,6.70
2023-04-15T01:18:39.592Z,5.60
2023-04-15T01:21:08.801Z,6.00
2023-04-15T01:23:38.730Z,10.00
2023-04-15T01:26:09.313Z,6.20
2023-04-15T01:28:38.455Z,7.50
2023-04-15T01:31:11.904Z,6.60
2023-04-15T01:33:42.518Z,5.60
2023-04-15T01:36:11.087Z,6.50
2023-04-15T01:38:40.369Z,5.90
2023-04-15T01:41:08.766Z,6.60
2023-04-15T01:43:39.722Z,5.50
2023-04-15T01:46:10.610Z,5.60
2023-04-15T01:48:38.891Z,6.50
2023-04-15T01:51:08.291Z,8.80
2023-04-15T01:53:38.155Z,5.50
2023-04-15T01:56:07.463Z,7.10
2023-04-15T01:58:36.154Z,7.20
2023-04-15T02:01:04.880Z,6.10
2023-04-15T02:03:34.363Z,7.10
2023-04-15T02:06:02.730Z,8.10
2023-04-15T02:08:36.119Z,7.80
2023-04-15T02:11:06.166Z,7.20
2023-04-15T02:13:34.536Z,6.90
2023-04-15T02:16:03.649Z,6.90
2023-04-15T02:18:35.765Z,6.90
2023-04-15T02:21:07.302Z,5.80
2023-04-15T02:23:35.401Z,7.50
2023-04-15T02:26:05.155Z,5.90
2023-04-15T02:28:33.546Z,8.00
2023-04-15T02:31:06.668Z,7.00
2023-04-15T02:33:35.016Z,8.80
2023-04-15T02:36:05.752Z,8.90
2023-04-15T02:38:34.753Z,7.20
2023-04-15T02:41:11.728Z,9.30
2023-04-15T02:43:41.443Z,6.60
2023-04-15T02:46:12.998Z,8.50
2023-04-15T02:48:46.521Z,7.70
2023-04-15T02:51:20.198Z,8.10
2023-04-15T02:53:49.214Z,9.90
2023-04-15T02:56:20.458Z,10.10
2023-04-15T02:58:50.724Z,7.90
2023-04-15T03:01:20.755Z,9.60
2023-04-15T03:03:49.214Z,9.90
2023-04-15T03:06:17.464Z,7.80
2023-04-15T03:08:45.941Z,7.40
2023-04-15T03:11:15.538Z,7.60
2023-04-15T03:13:44.151Z,8.40
2023-04-15T03:16:22.872Z,9.60
2023-04-15T03:18:51.248Z,7.50
2023-04-15T03:21:21.371Z,12.40
2023-04-15T03:23:49.954Z,8.90
2023-04-15T03:26:29.910Z,9.80
2023-04-15T03:29:01.765Z,9.70
2023-04-15T03:31:31.251Z,8.60
2023-04-15T03:33:59.668Z,11.50
2023-04-15T03:36:29.790Z,10.60
2023-04-15T03:38:59.981Z,9.00
2023-04-15T03:41:28.972Z,9.10
2023-04-15T03:43:59.446Z,13.80
2023-04-15T03:46:28.063Z,7.00
2023-04-15T03:48:56.435Z,7.20
2023-04-15T03:51:25.024Z,8.90
2023-04-15T03:53:54.720Z,12.70
2023-04-15T03:56:22.946Z,9.70
2023-04-15T03:58:51.895Z,9.40
2023-04-15T04:01:20.178Z,8.20
2023-04-15T04:03:48.813Z,8.30
2023-04-15T04:06:20.841Z,11.20
2023-04-15T04:08:49.698Z,9.30
2023-04-15T04:11:17.807Z,13.80
2023-04-15T04:13:48.340Z,8.70
2023-04-15T04:16:17.765Z,12.70
2023-04-15T04:18:46.331Z,9.00
2023-04-15T04:21:14.517Z,11.40
2023-04-15T04:23:43.626Z,9.80
2023-04-15T04:26:12.101Z,8.20
2023-04-15T04:28:40.739Z,8.00
2023-04-15T04:31:09.930Z,9.40
2023-04-15T04:33:40.003Z,10.20
2023-04-15T04:36:08.497Z,12.70
2023-04-15T04:38:41.590Z,10.20
2023-04-15T04:41:09.769Z,10.40
2023-04-15T04:43:37.954Z,8.90
2023-04-15T04:46:06.670Z,9.70
2023-04-15T04:48:35.429Z,13.10
2023-04-15T04:51:04.130Z,9.50
2023-04-15T04:53:33.940Z,15.90
2023-04-15T04:56:02.509Z,10.20
2023-04-15T04:58:30.911Z,6.80
2023-04-15T05:01:00.365Z,10.60
2023-04-15T05:03:28.939Z,9.50
2023-04-15T05:05:57.310Z,9.10
2023-04-15T05:08:30.502Z,10.60
2023-04-15T05:10:58.672Z,12.20
2023-04-15T05:13:27.363Z,11.40
2023-04-15T05:15:57.170Z,10.90
2023-04-15T05:18:30.264Z,12.20
2023-04-15T05:20:59.470Z,11.10
2023-04-15T05:23:27.751Z,10.10
2023-04-15T05:25:56.131Z,12.20
2023-04-15T05:28:25.847Z,10.60
2023-04-15T05:30:53.961Z,12.00
2023-04-15T05:33:23.285Z,11.50
2023-04-15T05:35:56.028Z,15.50
2023-04-15T05:38:36.347Z,10.00
2023-04-15T05:41:08.969Z,12.00
2023-04-15T05:43:44.458Z,11.80
2023-04-15T05:46:13.713Z,13.80
2023-04-15T05:48:43.137Z,8.60
2023-04-15T05:51:14.665Z,11.60
2023-04-15T05:53:46.705Z,8.40
2023-04-15T05:58:57.069Z,12.30
2023-04-15T06:01:31.421Z,14.60
2023-04-15T06:04:00.589Z,12.10
2023-04-15T06:06:29.116Z,9.00
2023-04-15T06:08:57.808Z,9.50
2023-04-15T06:11:32.244Z,14.00
2023-04-15T06:14:02.175Z,9.00
2023-04-15T06:16:32.957Z,9.90
2023-04-15T06:19:05.408Z,9.90
2023-04-15T06:21:42.015Z,8.50
2023-04-15T06:24:12.261Z,10.60
2023-04-15T06:26:51.197Z,6.10
2023-04-15T06:29:29.879Z,8.90
2023-04-15T06:32:08.104Z,15.20
2023-04-15T06:34:37.471Z,8.40
2023-04-15T06:37:09.669Z,9.10
2023-04-15T06:42:39.841Z,8.40
2023-04-15T06:45:15.210Z,8.20
2023-04-15T06:47:45.808Z,8.90
2023-04-15T06:50:18.672Z,10.20
2023-04-15T06:52:58.551Z,6.20
2023-04-15T06:55:32.491Z,9.50
2023-04-15T06:58:05.901Z,9.00
2023-04-15T07:00:40.006Z,9.20
2023-04-15T07:05:55.734Z,11.40
2023-04-15T07:11:14.588Z,8.80
2023-04-15T07:13:49.975Z,6.70
2023-04-15T07:16:29.408Z,9.00
2023-04-15T07:19:05.074Z,8.20
2023-04-15T07:21:40.061Z,8.00
2023-04-15T07:24:28.680Z,7.30
2023-04-15T07:27:05.088Z,6.10
2023-04-15T07:29:37.385Z,7.50
2023-04-15T07:34:57.959Z,9.00
2023-04-15T07:37:30.732Z,6.50
2023-04-15T07:40:06.334Z,6.00
2023-04-15T07:42:44.125Z,7.40
2023-04-15T07:45:13.090Z,6.80
2023-04-15T07:47:47.215Z,5.40
2023-04-15T07:50:23.413Z,7.40
2023-04-15T07:52:56.021Z,5.30
2023-04-15T07:55:28.246Z,10.00
2023-04-15T07:58:00.051Z,6.60
2023-04-15T08:00:28.969Z,6.10
2023-04-15T08:03:00.106Z,4.40
2023-04-15T08:05:34.412Z,6.20
2023-04-15T08:08:05.260Z,5.90
2023-04-15T08:10:41.923Z,4.90
2023-04-15T08:13:11.411Z,4.90
2023-04-15T08:15:46.571Z,5.30
2023-04-15T08:18:17.006Z,24.10
2023-04-15T08:20:48.560Z,6.60
2023-04-15T08:23:18.680Z,5.80
2023-04-15T08:25:57.382Z,5.20
2023-04-15T08:28:29.054Z,6.20
2023-04-15T08:31:02.746Z,9.60
2023-04-15T08:33:37.219Z,7.40
2023-04-15T08:36:15.090Z,6.80
2023-04-15T08:38:47.031Z,6.80
2023-04-15T08:41:26.454Z,7.30
2023-04-15T08:44:09.394Z,6.80
2023-04-15T08:46:42.696Z,8.50
2023-04-15T08:49:18.396Z,6.60
2023-04-15T08:51:51.134Z,6.90
2023-04-15T08:54:23.557Z,13.00
2023-04-15T08:56:54.026Z,10.90
2023-04-15T08:59:27.238Z,7.00
2023-04-15T09:02:01.908Z,5.90
2023-04-15T09:04:31.679Z,8.80
2023-04-15T09:06:59.825Z,8.80
2023-04-15T09:09:30.540Z,8.00
2023-04-15T09:11:58.704Z,6.70
2023-04-15T09:14:27.120Z,5.70
2023-04-15T09:17:04.587Z,7.80
2023-04-15T09:19:40.579Z,10.00
2023-04-15T09:22:16.418Z,8.80
2023-04-15T09:27:37.976Z,5.40
2023-04-15T09:30:15.316Z,5.90
2023-04-15T09:33:02.581Z,5.70
2023-04-15T09:35:31.843Z,7.70
2023-04-15T09:38:04.191Z,6.30
2023-04-15T09:40:38.818Z,8.20
2023-04-15T09:43:08.180Z,4.20
2023-04-15T09:45:36.615Z,5.30
2023-04-15T09:48:23.581Z,5.00
2023-04-15T09:50:54.939Z,6.50
2023-04-15T09:53:24.569Z,4.90
2023-04-15T09:56:00.722Z,7.00
2023-04-15T09:58:31.522Z,10.20
2023-04-15T10:01:01.981Z,5.20
2023-04-15T10:03:37.112Z,6.20
2023-04-15T10:06:09.202Z,4.40
2023-04-15T10:08:39.595Z,5.80
2023-04-15T10:11:12.882Z,6.40
2023-04-15T10:13:41.471Z,4.60
2023-04-15T10:16:17.165Z,9.00
2023-04-15T10:18:58.532Z,7.00
2023-04-15T10:21:32.100Z,5.40
2023-04-15T10:24:01.969Z,7.20
2023-04-15T10:26:35.761Z,4.80
2023-04-15T10:29:04.754Z,8.10
2023-04-15T10:31:33.015Z,8.70
2023-04-15T10:34:10.864Z,5.10
2023-04-15T10:36:39.652Z,9.60
2023-04-15T10:39:40.259Z,7.00
2023-04-15T10:42:10.302Z,4.70
2023-04-15T10:44:41.997Z,5.20
2023-04-15T10:47:13.269Z,4.80
2023-04-15T10:50:02.583Z,6.40
2023-04-15T10:52:40.805Z,5.20
2023-04-15T10:55:18.006Z,6.90
2023-04-15T10:57:46.995Z,6.80
2023-04-15T11:00:16.786Z,8.20
2023-04-15T11:03:15.207Z,6.90
2023-04-15T11:05:50.633Z,7.00
2023-04-15T11:08:19.618Z,5.40
2023-04-15T11:10:54.172Z,5.70
2023-04-15T11:13:23.847Z,6.80
2023-04-15T11:15:56.872Z,6.90
2023-04-15T11:18:30.253Z,5.60
2023-04-15T11:21:12.001Z,9.90
2023-04-15T11:23:44.421Z,10.60
2023-04-15T11:26:13.654Z,9.30
2023-04-15T11:28:43.503Z,5.10
2023-04-15T11:31:18.772Z,6.30
2023-04-15T11:33:59.564Z,12.90
2023-04-15T11:36:35.535Z,7.30
2023-04-15T11:41:53.358Z,6.20
2023-04-15T11:44:23.483Z,6.70
2023-04-15T11:46:55.554Z,6.70
2023-04-15T11:49:30.818Z,5.20
2023-04-15T11:52:02.924Z,5.60
2023-04-15T11:54:34.069Z,9.90
2023-04-15T11:57:03.353Z,5.20
2023-04-15T11:59:46.463Z,7.60
2023-04-15T12:02:21.970Z,7.30
2023-04-15T12:04:53.021Z,6.10
2023-04-15T12:07:21.318Z,8.80
2023-04-15T12:09:59.578Z,6.20
2023-04-15T12:12:31.653Z,6.90
2023-04-15T12:15:00.246Z,6.40
2023-04-15T12:17:28.485Z,6.50
2023-04-15T12:20:02.408Z,6.00
2023-04-15T12:22:40.334Z,8.60
2023-04-15T12:25:13.810Z,6.20
2023-04-15T12:27:52.134Z,8.50
2023-04-15T12:30:22.429Z,7.60
2023-04-15T12:32:52.024Z,8.20
2023-04-15T12:35:22.112Z,7.30
2023-04-15T12:37:55.819Z,7.40
2023-04-15T12:40:29.756Z,7.60
2023-04-15T12:42:58.416Z,8.30
2023-04-15T12:45:32.775Z,6.80
2023-04-15T12:48:05.970Z,6.80
2023-04-15T12:50:35.405Z,5.90
2023-04-15T12:53:10.005Z,6.60
2023-04-15T12:55:40.454Z,6.00
2023-04-15T12:58:12.110Z,8.50
2023-04-15T13:00:43.000Z,8.50
2023-04-15T13:03:13.393Z,5.60
2023-04-15T13:05:46.609Z,5.20
2023-04-15T13:08:20.077Z,6.60
2023-04-15T13:10:50.484Z,7.60
2023-04-15T13:13:19.055Z,5.40
2023-04-15T13:15:55.517Z,8.70
2023-04-15T13:18:26.658Z,7.60
2023-04-15T13:20:55.784Z,6.00
2023-04-15T13:23:25.139Z,7.10
2023-04-15T13:25:55.409Z,6.70
2023-04-15T13:28:25.258Z,6.10
2023-04-15T13:30:54.719Z,5.60
2023-04-15T13:33:31.229Z,8.70
2023-04-15T13:35:59.444Z,10.30
2023-04-15T13:38:27.799Z,6.90
2023-04-15T13:40:56.296Z,6.10
2023-04-15T13:43:27.228Z,10.80
2023-04-15T13:45:57.399Z,6.60
2023-04-15T13:48:31.611Z,7.30
2023-04-15T13:51:02.658Z,5.70
2023-04-15T13:53:38.306Z,8.40
2023-04-15T13:56:10.893Z,5.90
2023-04-15T13:58:43.252Z,9.30
2023-04-15T14:01:13.656Z,8.00
2023-04-15T14:03:45.506Z,9.30
2023-04-15T14:06:13.882Z,11.50
2023-04-15T14:08:42.319Z,8.50
2023-04-15T14:11:14.989Z,5.50
2023-04-15T14:13:45.998Z,7.00
2023-04-15T14:16:14.070Z,7.40
2023-04-15T14:18:43.399Z,6.40
2023-04-15T14:21:14.107Z,8.10
2023-04-15T14:23:42.773Z,7.30
2023-04-15T14:26:14.717Z,6.50
2023-04-15T14:28:45.270Z,6.50
2023-04-15T14:31:21.587Z,6.10
2023-04-15T14:33:52.021Z,6.10
2023-04-15T14:36:20.102Z,4.80
2023-04-15T14:38:50.772Z,7.70
2023-04-15T14:41:23.691Z,6.80
2023-04-15T14:46:39.073Z,5.40
2023-04-15T14:49:10.504Z,5.90
2023-04-15T14:51:41.855Z,5.70
2023-04-15T14:54:14.949Z,6.10
2023-04-15T14:56:44.460Z,8.60
2023-04-15T14:59:13.030Z,7.30
2023-04-15T15:01:41.759Z,8.70
2023-04-15T15:04:13.198Z,8.60
2023-04-15T15:06:43.832Z,7.60
2023-04-15T15:09:12.957Z,5.50
2023-04-15T15:14:30.940Z,5.10
2023-04-15T15:17:01.393Z,6.00
2023-04-15T15:19:35.576Z,6.70
2023-04-15T15:22:06.040Z,6.00
2023-04-15T15:24:40.513Z,8.20
2023-04-15T15:27:14.277Z,7.00
2023-04-15T15:29:44.966Z,7.40
2023-04-15T15:32:15.050Z,10.10
2023-04-15T15:34:43.124Z,7.70
2023-04-15T15:37:13.701Z,10.10
2023-04-15T15:39:47.773Z,6.80
2023-04-15T15:42:18.257Z,5.40
2023-04-15T15:44:49.465Z,7.70
2023-04-15T15:47:23.066Z,7.60
2023-04-15T15:49:53.716Z,6.60
2023-04-15T15:52:22.361Z,8.50
2023-04-15T15:54:51.654Z,9.30
2023-04-15T15:57:30.520Z,6.60
2023-04-15T16:05:08.573Z,7.70
2023-04-15T16:10:20.120Z,7.00
2023-04-15T16:12:49.889Z,13.30
2023-04-15T16:15:19.919Z,7.20
2023-04-15T16:17:52.081Z,7.50
2023-04-15T16:20:27.453Z,6.90
2023-04-15T16:22:58.920Z,6.80
2023-04-15T16:25:27.361Z,5.60
2023-04-15T16:28:05.520Z,10.40
2023-04-15T16:30:40.540Z,14.80
2023-04-15T16:33:08.665Z,7.10
2023-04-15T16:35:47.811Z,9.00
2023-04-15T16:38:16.548Z,8.90
2023-04-15T16:40:45.454Z,11.90
2023-04-15T16:43:14.013Z,6.90
2023-04-15T16:45:47.561Z,8.60
2023-04-15T16:48:19.762Z,9.80
2023-04-15T16:50:51.181Z,9.50
2023-04-15T16:53:27.878Z,6.50
2023-04-15T16:55:56.274Z,6.00
2023-04-15T16:58:26.595Z,10.80
2023-04-15T17:00:57.582Z,8.10
2023-04-15T17:03:31.162Z,12.20
2023-04-15T17:06:02.810Z,7.70
2023-04-15T17:08:32.612Z,7.20
2023-04-15T17:11:06.677Z,8.30
2023-04-15T17:13:37.166Z,7.30
2023-04-15T17:16:05.583Z,8.60
2023-04-15T17:18:41.978Z,7.20
2023-04-15T17:21:14.041Z,10.00
2023-04-15T17:23:42.360Z,9.50
2023-04-15T17:26:10.812Z,9.70
2023-04-15T17:28:41.903Z,9.10
2023-04-15T17:31:17.244Z,8.20
2023-04-15T17:34:07.651Z,7.50
2023-04-15T17:36:44.186Z,9.60
2023-04-15T17:39:18.266Z,7.90
2023-04-15T17:41:55.345Z,10.80
2023-04-15T17:44:25.273Z,7.10
2023-04-15T17:47:03.853Z,9.40
2023-04-15T17:49:37.853Z,11.00
2023-04-15T17:52:15.705Z,11.40
2023-04-15T17:54:57.327Z,13.70
2023-04-15T17:57:29.233Z,14.90
2023-04-15T18:00:00.047Z,15.80
2023-04-15T18:02:37.366Z,18.50
2023-04-15T18:05:11.085Z,14.00
2023-04-15T18:07:39.806Z,18.70
2023-04-15T18:10:16.402Z,15.70
2023-04-15T18:12:48.428Z,17.10
2023-04-15T18:15:23.953Z,19.50
2023-04-15T18:18:00.349Z,18.00
2023-04-15T18:20:30.445Z,15.70
2023-04-15T18:23:03.728Z,15.60
2023-04-15T18:25:34.342Z,14.60
2023-04-15T18:28:06.184Z,11.10
2023-04-15T18:30:37.324Z,11.50
2023-04-15T18:33:19.263Z,8.90
2023-04-15T18:35:49.786Z,7.90
2023-04-15T18:38:21.268Z,9.50
2023-04-15T18:40:58.309Z,8.50
2023-04-15T18:43:29.026Z,8.00
2023-04-15T18:45:57.574Z,8.90
2023-04-15T18:48:30.905Z,8.60
2023-04-15T18:51:00.726Z,7.10
2023-04-15T18:53:32.779Z,8.10
2023-04-15T18:56:12.595Z,8.70
2023-04-15T18:59:18.220Z,10.60
2023-04-15T19:01:42.172Z,7.40
2023-04-15T19:04:18.145Z,10.90
2023-04-15T19:06:52.238Z,8.70
2023-04-15T19:09:23.542Z,7.10
2023-04-15T19:11:52.228Z,6.80
2023-04-15T19:14:53.954Z,7.90
2023-04-15T19:17:48.701Z,7.10
2023-04-15T19:20:17.273Z,9.00
2023-04-15T19:22:45.504Z,7.60
2023-04-15T19:25:14.012Z,8.10
2023-04-15T19:27:42.797Z,7.00
2023-04-15T19:30:11.503Z,6.90
2023-04-15T19:32:40.025Z,7.30
2023-04-15T19:35:11.424Z,9.00
2023-04-15T19:37:40.320Z,9.60
2023-04-15T19:40:09.645Z,7.80
2023-04-15T19:42:38.319Z,9.70
2023-04-15T19:45:07.041Z,8.90
2023-04-15T19:47:36.375Z,9.50
2023-04-15T19:50:07.411Z,10.10
2023-04-15T19:52:35.518Z,8.30
2023-04-15T19:55:04.364Z,10.40
2023-04-15T19:57:34.181Z,8.50
2023-04-15T20:00:02.174Z,12.90
2023-04-15T20:02:34.549Z,9.30
2023-04-15T20:05:03.166Z,8.30
2023-04-15T20:07:31.770Z,9.00
2023-04-15T20:10:00.246Z,9.80
2023-04-15T20:12:49.547Z,12.20
2023-04-15T20:15:17.903Z,10.50
2023-04-15T20:17:47.840Z,19.30
2023-04-15T20:20:16.628Z,10.00
2023-04-15T20:22:44.761Z,10.50
2023-04-15T20:25:13.199Z,10.00
2023-04-15T20:27:42.043Z,8.80
2023-04-15T20:30:11.164Z,8.90
2023-04-15T20:32:39.373Z,10.90
2023-04-15T20:35:08.077Z,10.60
2023-04-15T20:37:37.461Z,11.00
2023-04-15T20:40:06.651Z,10.60
2023-04-15T20:42:35.129Z,11.20
2023-04-15T20:45:04.053Z,11.00
2023-04-15T20:47:32.250Z,11.60
2023-04-15T20:50:00.698Z,9.60
2023-04-15T20:52:28.874Z,10.60
2023-04-15T20:54:57.052Z,12.40
2023-04-15T20:57:26.068Z,12.20
2023-04-15T20:59:54.152Z,12.30
2023-04-15T21:02:23.766Z,11.70
2023-04-15T21:04:53.065Z,12.90
2023-04-15T21:07:21.895Z,11.70
2023-04-15T21:09:50.429Z,11.30
2023-04-15T21:12:19.220Z,11.10
2023-04-15T21:14:47.302Z,10.90
2023-04-15T21:17:15.482Z,10.20
2023-04-15T21:19:43.923Z,15.30
2023-04-15T21:22:11.959Z,14.20
2023-04-15T21:24:40.296Z,13.30
2023-04-15T21:27:09.628Z,14.20
2023-04-15T21:29:40.394Z,14.30
2023-04-15T21:32:08.730Z,13.50
2023-04-15T21:34:37.149Z,17.00
2023-04-15T21:37:05.825Z,17.10
2023-04-15T21:39:34.103Z,15.80
2023-04-15T21:42:02.986Z,14.90
2023-04-15T21:44:31.295Z,15.00
2023-04-15T21:46:59.594Z,16.00
2023-04-15T21:49:28.162Z,16.30
2023-04-15T21:52:01.373Z,15.50
2023-04-15T21:54:31.259Z,15.40
2023-04-15T21:56:59.550Z,16.00
2023-04-15T21:59:27.821Z,18.20
2023-04-15T22:01:55.978Z,15.90
2023-04-15T22:04:24.498Z,17.30
2023-04-15T22:06:55.841Z,16.50
2023-04-15T22:09:24.016Z,16.40
2023-04-15T22:11:52.302Z,18.60
2023-04-15T22:14:20.394Z,16.20
2023-04-15T22:16:48.719Z,17.00
2023-04-15T22:19:16.837Z,14.90
2023-04-15T22:21:45.024Z,17.10
2023-04-15T22:24:37.208Z,17.70
2023-04-15T22:27:03.484Z,19.80
2023-04-15T22:29:32.270Z,20.50
2023-04-15T22:32:00.505Z,21.40
2023-04-15T22:34:28.627Z,18.60
2023-04-15T22:36:56.825Z,20.70
2023-04-15T22:39:24.855Z,20.50
2023-04-15T22:41:52.953Z,20.80
2023-04-15T22:44:21.038Z,19.90
2023-04-15T22:46:51.876Z,24.30
2023-04-15T22:49:19.953Z,20.40
2023-04-15T22:51:48.030Z,22.00
2023-04-15T22:54:16.517Z,18.30
2023-04-15T22:56:44.692Z,21.20
2023-04-15T22:59:12.994Z,20.10
2023-04-15T23:01:41.195Z,20.50
2023-04-15T23:04:10.331Z,20.90
2023-04-15T23:06:52.487Z,21.50
2023-04-15T23:09:22.692Z,20.80
2023-04-15T23:11:51.518Z,25.20
2023-04-15T23:14:19.927Z,21.90
2023-04-15T23:16:48.350Z,24.10
2023-04-15T23:19:16.726Z,24.60
2023-04-15T23:21:45.732Z,27.40
2023-04-15T23:24:13.914Z,24.40
2023-04-15T23:26:43.149Z,30.50
2023-04-15T23:29:11.399Z,27.70
2023-04-15T23:31:41.756Z,30.10
2023-04-15T23:34:10.118Z,28.00
2023-04-15T23:36:38.693Z,35.70
2023-04-15T23:41:36.692Z,31.70
2023-04-15T23:44:05.681Z,36.40
2023-04-15T23:46:34.108Z,34.50
2023-04-15T23:49:02.352Z,40.30
2023-04-15T23:51:31.221Z,35.60
2023-04-15T23:53:59.538Z,34.20
2023-04-15T23:56:27.709Z,40.80
2023-04-15T23:58:55.995Z,39.00
